M I D A S
Marine Information and Data Acquisition System
Tripno 2264 of the Zeeleeuw from 2012-02-13 09:27:11 to 2012-02-13 15:21:38
Back to CruiseResearch ActivitiesStationsMapUnderway DataData graphs

EquipmentUnitsComment
TimeDGPSUTC
LatitudeDGPSDM.mWGS84
LongitudeDGPSDM.mWGS84
HeadingGyrodeg 
SOGDGPSknotsSpeed over ground
COGDGPSdegCourse over ground
DepthEcho soundermeters200 kHz
Missing or incorrect values are displayed as -999
Navigation data collected by the RV Zeeleeuw from 2012-02-13 07:31:11 to 2012-02-13 15:31:12
Time Latitude Longitude Heading SOG COG Depth
2012-02-13 07:32:17 51°13.635 2°56.019 126.1 0.1 291 -999
2012-02-13 07:33:17 51°13.636 2°56.02 126.5 -999 14 -999
2012-02-13 07:34:17 51°13.636 2°56.02 126.5 0.1 96 -999
2012-02-13 07:35:17 51°13.636 2°56.019 126.2 -999 126 -999
2012-02-13 07:36:17 51°13.637 2°56.019 125.2 0.1 321 -999
2012-02-13 07:37:17 51°13.637 2°56.021 125.3 0.1 114 -999
2012-02-13 07:38:17 51°13.637 2°56.02 125.8 0.1 109 -999
2012-02-13 07:39:17 51°13.637 2°56.019 126.2 -999 358 -999
2012-02-13 07:40:17 51°13.638 2°56.019 127 0.1 23 -999
2012-02-13 07:41:17 51°13.637 2°56.019 127.5 0.1 186 -999
2012-02-13 07:42:16 51°13.636 2°56.018 129.7 -999 286 -999
2012-02-13 07:43:17 51°13.636 2°56.019 129.4 -999 22 -999
2012-02-13 07:44:17 51°13.635 2°56.019 127.5 0.3 190 -999
2012-02-13 07:45:17 51°13.637 2°56.019 126.3 0.1 182 -999
2012-02-13 07:46:17 51°13.638 2°56.02 126.3 -999 346 -999
2012-02-13 07:47:16 51°13.639 2°56.02 126.5 0.1 37 -999
2012-02-13 07:48:17 51°13.637 2°56.019 126.8 0.1 139 -999
2012-02-13 07:49:16 51°13.636 2°56.018 126.9 0.1 174 -999
2012-02-13 07:50:17 51°13.636 2°56.018 127.1 0.1 201 -999
2012-02-13 07:51:17 51°13.635 2°56.017 127.1 0.2 200 -999
2012-02-13 07:52:17 51°13.636 2°56.018 127.5 0.1 164 -999
2012-02-13 07:53:17 51°13.635 2°56.019 127.4 0.1 214 -999
2012-02-13 07:54:17 51°13.636 2°56.018 127.2 0.1 39 -999
2012-02-13 07:55:17 51°13.637 2°56.018 127.1 0.1 20 -999
2012-02-13 07:56:17 51°13.637 2°56.018 127.4 -999 139 -999
2012-02-13 07:57:17 51°13.637 2°56.018 127.3 0.1 30 -999
2012-02-13 07:58:17 51°13.636 2°56.018 127.2 -999 4 -999
2012-02-13 07:59:17 51°13.637 2°56.019 127.2 0.1 95 -999
2012-02-13 08:00:17 51°13.636 2°56.019 127.2 0.1 25 -999
2012-02-13 08:01:17 51°13.635 2°56.019 127.1 0.1 8 -999
2012-02-13 08:02:17 51°13.636 2°56.019 126.9 0.2 144 -999
2012-02-13 08:03:17 51°13.636 2°56.018 126.9 0.1 348 -999
2012-02-13 08:04:17 51°13.635 2°56.018 127.1 0.1 136 -999
2012-02-13 08:05:17 51°13.636 2°56.018 127.2 0.1 310 -999
2012-02-13 08:06:17 51°13.636 2°56.018 127.1 -999 63 -999
2012-02-13 08:07:17 51°13.636 2°56.019 126.8 0.1 342 -999
2012-02-13 08:08:17 51°13.636 2°56.019 126.3 -999 228 -999
2012-02-13 08:09:17 51°13.636 2°56.019 127.1 0.1 80 -999
2012-02-13 08:10:17 51°13.637 2°56.019 126.8 0.1 3 -999
2012-02-13 08:11:18 51°13.636 2°56.019 127.1 0.1 139 -999
2012-02-13 08:12:17 51°13.636 2°56.019 127 0.1 198 -999
2012-02-13 08:13:17 51°13.636 2°56.019 126.8 -999 150 -999
2012-02-13 08:14:17 51°13.636 2°56.019 126.8 0.2 171 -999
2012-02-13 08:15:17 51°13.636 2°56.018 127.2 0.1 276 -999
2012-02-13 08:16:17 51°13.637 2°56.018 127.1 0.2 348 -999
2012-02-13 08:17:17 51°13.636 2°56.019 127.1 0.1 141 -999
2012-02-13 08:18:17 51°13.636 2°56.018 126.9 0.1 291 -999
2012-02-13 08:19:18 51°13.636 2°56.018 126.9 -999 143 -999
2012-02-13 08:20:18 51°13.636 2°56.018 126.6 -999 60 -999
2012-02-13 08:21:17 51°13.636 2°56.018 126.6 -999 7 -999
2012-02-13 08:22:18 51°13.636 2°56.019 126.5 0.1 167 -999
2012-02-13 08:23:17 51°13.636 2°56.019 126.4 0.1 124 -999
2012-02-13 08:24:17 51°13.636 2°56.019 126.8 0.1 21 -999
2012-02-13 08:25:17 51°13.636 2°56.019 126.8 0.1 152 -999
2012-02-13 08:26:17 51°13.635 2°56.019 126.8 -999 189 -999
2012-02-13 08:27:17 51°13.635 2°56.019 126.6 -999 9 -999
2012-02-13 08:28:17 51°13.635 2°56.019 126.5 0.1 150 -999
2012-02-13 08:29:17 51°13.636 2°56.019 126.6 0.1 67 -999
2012-02-13 08:30:17 51°13.636 2°56.018 126.7 0.1 337 -999
2012-02-13 08:31:17 51°13.636 2°56.019 126.6 0.3 152 -999
2012-02-13 08:32:17 51°13.636 2°56.018 127.1 0.1 175 -999
2012-02-13 08:33:17 51°13.636 2°56.017 127 0.1 71 -999
2012-02-13 08:34:17 51°13.636 2°56.017 127 0.1 228 -999
2012-02-13 08:35:17 51°13.636 2°56.018 126.9 0.1 140 -999
2012-02-13 08:36:17 51°13.636 2°56.018 127 -999 344 -999
2012-02-13 08:37:17 51°13.636 2°56.018 126.9 -999 234 -999
2012-02-13 08:38:17 51°13.636 2°56.018 126.9 0.1 101 -999
2012-02-13 08:39:17 51°13.636 2°56.018 126.9 -999 167 -999
2012-02-13 08:40:17 51°13.637 2°56.018 126.7 0.1 359 -999
2012-02-13 08:41:17 51°13.636 2°56.019 126.7 -999 172 -999
2012-02-13 08:42:17 51°13.635 2°56.019 126.6 -999 68 -999
2012-02-13 08:43:17 51°13.635 2°56.019 126.5 0.2 -999 -999
2012-02-13 08:44:17 51°13.635 2°56.019 126.5 0.1 261 -999
2012-02-13 08:45:17 51°13.635 2°56.019 126.5 -999 177 -999
2012-02-13 08:46:17 51°13.635 2°56.018 126.4 -999 97 -999
2012-02-13 08:47:17 51°13.635 2°56.018 126.4 -999 115 -999
2012-02-13 08:48:18 51°13.635 2°56.019 126.4 -999 161 -999
2012-02-13 08:49:17 51°13.636 2°56.018 126.4 -999 252 -999
2012-02-13 08:50:17 51°13.636 2°56.018 126.4 0.1 15 -999
2012-02-13 08:51:18 51°13.636 2°56.018 126.4 0.1 344 -999
2012-02-13 08:52:17 51°13.635 2°56.019 126.4 -999 169 -999
2012-02-13 08:53:17 51°13.635 2°56.019 126.4 0.1 319 -999
2012-02-13 08:54:17 51°13.635 2°56.018 126.2 0.1 243 -999
2012-02-13 08:55:17 51°13.635 2°56.019 126.2 0.1 171 -999
2012-02-13 08:56:17 51°13.635 2°56.019 125.2 0.3 176 -999
2012-02-13 08:57:17 51°13.636 2°56.018 125.7 0.1 333 -999
2012-02-13 08:58:17 51°13.637 2°56.018 126 0.2 352 -999
2012-02-13 08:59:18 51°13.636 2°56.018 127.1 0.2 335 -999
2012-02-13 09:00:17 51°13.636 2°56.017 126.9 0.1 142 -999
2012-02-13 09:01:17 51°13.636 2°56.017 126.3 0.1 209 -999
2012-02-13 09:02:17 51°13.636 2°56.018 125.9 -999 180 -999
2012-02-13 09:03:17 51°13.636 2°56.018 125.8 -999 151 -999
2012-02-13 09:04:17 51°13.636 2°56.018 125.9 0.2 152 -999
2012-02-13 09:05:17 51°13.637 2°56.017 126.8 0.3 344 -999
2012-02-13 09:06:17 51°13.636 2°56.018 126.9 -999 11 -999
2012-02-13 09:07:17 51°13.637 2°56.018 126.7 0.1 344 -999
2012-02-13 09:08:17 51°13.637 2°56.018 126.4 0.1 167 -999
2012-02-13 09:09:17 51°13.637 2°56.018 126.4 0.1 175 -999
2012-02-13 09:10:17 51°13.637 2°56.019 126.4 0.3 142 -999
2012-02-13 09:11:17 51°13.636 2°56.018 126.2 0.3 180 -999
2012-02-13 09:12:17 51°13.637 2°56.018 126 -999 234 -999
2012-02-13 09:13:17 51°13.637 2°56.018 126.4 -999 161 -999
2012-02-13 09:14:17 51°13.638 2°56.018 126.5 0.4 334 -999
2012-02-13 09:15:17 51°13.638 2°56.019 126.6 0.4 344 -999
2012-02-13 09:16:17 51°13.637 2°56.02 126.8 0.1 133 -999
2012-02-13 09:17:17 51°13.637 2°56.019 126.5 0.1 250 -999
2012-02-13 09:18:17 51°13.637 2°56.018 126.7 0.2 174 -999
2012-02-13 09:19:17 51°13.637 2°56.018 126.6 0.1 194 -999
2012-02-13 09:20:17 51°13.637 2°56.018 126.8 0.2 180 -999
2012-02-13 09:21:17 51°13.634 2°56.015 127 0.3 176 -999
2012-02-13 09:22:17 51°13.638 2°56.023 126.2 0.2 168 -999
2012-02-13 09:23:17 51°13.638 2°56.023 127.7 0.1 91 -999
2012-02-13 09:24:17 51°13.635 2°56.019 127.7 0.1 27 -999
2012-02-13 09:25:17 51°13.636 2°56.018 126.1 0.1 337 -999
2012-02-13 09:26:17 51°13.636 2°56.019 128.2 -999 95 -999
2012-02-13 09:27:17 51°13.635 2°56.016 126.4 0.1 195 -999
2012-02-13 09:28:17 51°13.634 2°56.016 116.1 0.3 174 6.9
2012-02-13 09:29:17 51°13.641 2°55.985 109.1 3.7 294 -999
2012-02-13 09:30:17 51°13.671 2°55.87 114.6 5.3 291 -999
2012-02-13 09:31:17 51°13.725 2°55.747 136.7 6 315 -999
2012-02-13 09:32:17 51°13.801 2°55.651 153.7 5.9 331 -999
2012-02-13 09:33:17 51°13.897 2°55.612 181.5 5.6 359 -999
2012-02-13 09:34:17 51°13.966 2°55.631 203 3.1 19 -999
2012-02-13 09:35:17 51°13.979 2°55.63 245.7 1.4 254 -999
2012-02-13 09:36:17 51°13.996 2°55.565 314.6 3.9 322 -999
2012-02-13 09:37:17 51°14.081 2°55.483 330.5 7.6 329 -999
2012-02-13 09:38:17 51°14.203 2°55.366 331.6 9.1 330 -999
2012-02-13 09:39:17 51°14.338 2°55.23 329.8 10 326 -999
2012-02-13 09:40:17 51°14.481 2°55.081 331.1 10.6 329 -999
2012-02-13 09:41:15 51°14.627 2°54.903 328.6 12.2 320 10.5
2012-02-13 09:42:14 51°14.787 2°54.709 333.3 12.2 326 10.3
2012-02-13 09:43:17 51°14.962 2°54.512 330.9 12.3 324 -999
2012-02-13 09:44:15 51°15.111 2°54.308 326.2 12.2 321 10
2012-02-13 09:45:13 51°15.261 2°54.105 326.2 12.4 320 10.2
2012-02-13 09:46:13 51°15.413 2°53.885 326.9 12.3 318 10.3
2012-02-13 09:47:13 51°15.571 2°53.682 334.4 12.2 327 10
2012-02-13 09:48:13 51°15.752 2°53.535 343.5 12.2 335 10.8
2012-02-13 09:49:13 51°15.93 2°53.378 337.3 12.2 330 10.9
2012-02-13 09:50:13 51°16.109 2°53.233 343 12.2 334 10.8
2012-02-13 09:51:14 51°16.291 2°53.081 338.3 12.2 329 10.9
2012-02-13 09:52:13 51°16.459 2°52.902 335.8 12.2 328 10.8
2012-02-13 09:53:13 51°16.644 2°52.782 348.1 12 342 10.2
2012-02-13 09:54:13 51°16.828 2°52.682 345.9 11.7 340 8.3
2012-02-13 09:55:13 51°17.01 2°52.569 344.4 11.8 337 8.5
2012-02-13 09:56:14 51°17.196 2°52.46 347.8 11.8 341 8.6
2012-02-13 09:57:14 51°17.379 2°52.346 345.5 11.6 340 9.3
2012-02-13 09:58:13 51°17.564 2°52.281 357.9 11.5 352 9.3
2012-02-13 09:59:13 51°17.755 2°52.255 1 11.4 355 9.7
2012-02-13 10:00:14 51°17.947 2°52.228 358.1 11.6 350 9.7
2012-02-13 10:01:13 51°18.136 2°52.196 2.5 11.5 356 9.9
2012-02-13 10:02:14 51°18.328 2°52.137 352.1 11.6 346 9.9
2012-02-13 10:03:13 51°18.515 2°52.084 358.1 11.6 350 10.5
2012-02-13 10:04:13 51°18.704 2°52.007 350.2 11.7 341 11.6
2012-02-13 10:05:13 51°18.891 2°51.919 353.6 11.6 345 12.7
2012-02-13 10:06:13 51°19.08 2°51.852 359 11.4 351 13.8
2012-02-13 10:07:14 51°19.272 2°51.795 357.2 11.6 349 14.4
2012-02-13 10:08:13 51°19.458 2°51.73 353.4 11.8 343 14.6
2012-02-13 10:09:13 51°19.644 2°51.642 354.3 11.5 345 14.1
2012-02-13 10:10:13 51°19.834 2°51.575 357.9 11.6 348 13.8
2012-02-13 10:11:13 51°20.021 2°51.486 351.6 11.9 342 12.2
2012-02-13 10:12:14 51°20.213 2°51.41 358.7 11.8 349 11.7
2012-02-13 10:13:14 51°20.403 2°51.327 351.1 12 343 13.6
2012-02-13 10:14:14 51°20.595 2°51.243 353.6 12.1 345 15.5
2012-02-13 10:15:13 51°20.787 2°51.183 359.4 12 350 17
2012-02-13 10:16:14 51°20.983 2°51.115 353.9 11.9 345 19.5
2012-02-13 10:17:13 51°21.172 2°51.035 357.3 12 348 21.9
2012-02-13 10:18:13 51°21.366 2°50.967 353.3 12.1 345 22.7
2012-02-13 10:19:14 51°21.561 2°50.875 353.1 12.2 344 22.9
2012-02-13 10:20:14 51°21.757 2°50.814 358.4 11.9 349 23.1
2012-02-13 10:21:14 51°21.955 2°50.746 354.6 12.3 345 22
2012-02-13 10:22:13 51°22.144 2°50.66 354.5 11.9 347 22.5
2012-02-13 10:23:14 51°22.339 2°50.6 355.5 11.8 347 22.4
2012-02-13 10:24:13 51°22.527 2°50.534 355.9 11.7 347 22.1
2012-02-13 10:25:13 51°22.718 2°50.458 353.6 12 346 20.8
2012-02-13 10:26:14 51°22.911 2°50.383 354.6 11.5 348 14
2012-02-13 10:27:14 51°23.101 2°50.322 354.8 11.6 347 13.6
2012-02-13 10:28:14 51°23.29 2°50.261 355.4 11.6 349 16.5
2012-02-13 10:29:13 51°23.475 2°50.179 347.7 11.9 340 17.3
2012-02-13 10:30:14 51°23.669 2°50.09 355.3 11.9 347 20.9
2012-02-13 10:31:13 51°23.858 2°50.019 352.6 11.9 345 21.6
2012-02-13 10:32:14 51°24.047 2°49.914 348.6 11.7 340 21.3
2012-02-13 10:33:13 51°24.23 2°49.828 356 11.7 346 21.9
2012-02-13 10:34:14 51°24.42 2°49.748 353.7 11.4 343 21.9
2012-02-13 10:35:13 51°24.603 2°49.658 350.8 11.9 339 22.1
2012-02-13 10:36:13 51°24.775 2°49.502 336.6 12.1 327 21.8
2012-02-13 10:37:14 51°24.948 2°49.326 340.3 11.8 329 21.7
2012-02-13 10:38:14 51°25.125 2°49.174 340.5 12 330 21.4
2012-02-13 10:39:14 51°25.299 2°49.006 338.6 12.4 330 22.9
2012-02-13 10:40:13 51°25.475 2°48.867 344.8 11.9 334 23.6
2012-02-13 10:41:13 51°25.65 2°48.708 338.5 12.2 328 23.5
2012-02-13 10:42:13 51°25.823 2°48.552 344.1 11.7 334 23.1
2012-02-13 10:43:13 51°26.004 2°48.445 352.1 10.9 343 23.2
2012-02-13 10:44:14 51°26.126 2°48.373 349.6 5.3 339 23.3
2012-02-13 10:45:13 51°26.168 2°48.367 35.7 0.8 5 20
2012-02-13 10:46:14 51°26.17 2°48.37 46.7 0.2 163 21.5
2012-02-13 10:47:13 51°26.162 2°48.365 41.5 0.7 212 20.7
2012-02-13 10:48:13 51°26.15 2°48.351 34.9 1.2 227 19.6
2012-02-13 10:49:13 51°26.131 2°48.334 32.7 1.4 205 23.4
2012-02-13 10:50:13 51°26.109 2°48.316 33.7 1.4 214 21.2
2012-02-13 10:51:13 51°26.087 2°48.297 37.8 1.6 207 20.4
2012-02-13 10:52:13 51°26.073 2°48.296 65.4 1.8 96 22
2012-02-13 10:53:13 51°26.058 2°48.405 87.5 5.6 94 23.3
2012-02-13 10:54:13 51°26.072 2°48.528 60.1 2.7 64 22.5
2012-02-13 10:55:14 51°26.081 2°48.552 38.6 0.1 257 22.7
2012-02-13 10:56:13 51°26.076 2°48.541 26.1 0.6 225 22.1
2012-02-13 10:57:13 51°26.065 2°48.526 21.8 0.9 224 22.9
2012-02-13 10:58:13 51°26.047 2°48.508 20 1.1 215 23
2012-02-13 10:59:13 51°26.027 2°48.49 19.4 1.4 208 21.7
2012-02-13 11:00:13 51°26.006 2°48.471 26.8 1.7 209 23.1
2012-02-13 11:01:13 51°25.98 2°48.451 37.2 1.8 210 23.2
2012-02-13 11:02:13 51°25.954 2°48.429 45.8 1.8 204 23.2
2012-02-13 11:03:13 51°25.929 2°48.408 48.3 1.1 184 23.1
2012-02-13 11:04:14 51°25.968 2°48.46 37.2 5.8 34 23.2
2012-02-13 11:05:13 51°26.067 2°48.543 30.6 6.7 25 22.7
2012-02-13 11:06:13 51°26.167 2°48.61 27.7 6.2 22 23.2
2012-02-13 11:07:13 51°26.238 2°48.646 21.8 3.1 9 21.4
2012-02-13 11:08:14 51°26.273 2°48.647 20.4 1.4 350 22.5
2012-02-13 11:09:14 51°26.285 2°48.642 20.7 0.3 262 22.7
2012-02-13 11:10:13 51°26.285 2°48.631 18 0.5 277 22.2
2012-02-13 11:11:14 51°26.284 2°48.617 13.8 0.6 260 22.1
2012-02-13 11:12:13 51°26.281 2°48.602 11.5 0.7 241 22.3
2012-02-13 11:13:14 51°26.274 2°48.587 12.2 0.6 241 21.7
2012-02-13 11:14:13 51°26.267 2°48.571 11.3 0.8 240 20.9
2012-02-13 11:15:14 51°26.26 2°48.554 8 0.8 243 19.2
2012-02-13 11:16:13 51°26.255 2°48.535 1.8 0.8 247 20.2
2012-02-13 11:17:13 51°26.251 2°48.514 357.6 1 266 21.2
2012-02-13 11:18:14 51°26.249 2°48.49 350.2 0.8 254 22.4
2012-02-13 11:19:14 51°26.244 2°48.465 345.9 1 246 22.1
2012-02-13 11:20:14 51°26.237 2°48.442 356.1 0.9 240 22.6
2012-02-13 11:21:13 51°26.231 2°48.423 7.6 0.8 240 21.5
2012-02-13 11:22:14 51°26.225 2°48.406 8 0.7 246 20.3
2012-02-13 11:23:13 51°26.221 2°48.389 9.1 0.6 244 21.9
2012-02-13 11:24:13 51°26.219 2°48.374 8 0.6 269 22.3
2012-02-13 11:25:13 51°26.214 2°48.361 12 0.6 247 22.4
2012-02-13 11:26:14 51°26.21 2°48.348 10.3 0.5 248 22.4
2012-02-13 11:27:14 51°26.207 2°48.332 7.3 0.6 262 20.3
2012-02-13 11:28:13 51°26.204 2°48.318 15.5 0.5 249 20.9
2012-02-13 11:29:13 51°26.198 2°48.311 28.6 0.4 211 21
2012-02-13 11:30:13 51°26.194 2°48.305 22.3 0.3 221 21.4
2012-02-13 11:31:14 51°26.19 2°48.296 19.9 0.4 238 21.5
2012-02-13 11:32:13 51°26.185 2°48.287 15.2 0.6 216 20.9
2012-02-13 11:33:14 51°26.177 2°48.276 15.1 0.5 230 21.2
2012-02-13 11:34:14 51°26.171 2°48.265 13.6 0.6 234 20.2
2012-02-13 11:35:13 51°26.166 2°48.253 7.5 0.6 224 20
2012-02-13 11:36:14 51°26.16 2°48.239 5 0.7 242 20.1
2012-02-13 11:37:13 51°26.157 2°48.224 3.3 0.6 240 21.8
2012-02-13 11:38:13 51°26.153 2°48.207 2.9 0.6 251 21.2
2012-02-13 11:39:13 51°26.148 2°48.189 1.4 0.8 239 21.5
2012-02-13 11:40:14 51°26.14 2°48.17 3 0.9 231 20.2
2012-02-13 11:41:13 51°26.136 2°48.156 21.1 0.2 295 19.4
2012-02-13 11:42:14 51°26.14 2°48.158 28.9 0.2 9 20
2012-02-13 11:43:13 51°26.139 2°48.156 24.6 0.3 217 19.8
2012-02-13 11:44:13 51°26.136 2°48.152 23.6 0.2 243 19.1
2012-02-13 11:45:14 51°26.136 2°48.151 24.3 0.2 339 18.8
2012-02-13 11:46:13 51°26.139 2°48.148 20.9 0.4 343 19.4
2012-02-13 11:47:13 51°26.143 2°48.144 20.2 0.2 285 19.4
2012-02-13 11:48:13 51°26.143 2°48.137 15.1 0.5 286 19
2012-02-13 11:49:13 51°26.143 2°48.127 11.9 0.4 280 19.1
2012-02-13 11:50:13 51°26.144 2°48.116 8.1 0.6 273 18.7
2012-02-13 11:51:13 51°26.146 2°48.101 6 0.6 279 17.3
2012-02-13 11:52:13 51°26.152 2°48.08 355.8 1 297 17
2012-02-13 11:53:13 51°26.157 2°48.04 321.8 2.6 279 18.8
2012-02-13 11:54:14 51°26.142 2°47.93 258.8 6.5 245 20.8
2012-02-13 11:55:13 51°26.033 2°47.723 232.6 12.7 231 21
2012-02-13 11:56:13 51°25.896 2°47.436 238.1 13.7 234 21.3
2012-02-13 11:57:13 51°25.762 2°47.141 236.3 13.7 234 23.1
2012-02-13 11:58:13 51°25.624 2°46.849 235.6 13.7 233 22.5
2012-02-13 11:59:13 51°25.49 2°46.554 236.1 13.7 233 21.7
2012-02-13 12:00:13 51°25.344 2°46.274 233 13.7 230 24.6
2012-02-13 12:01:13 51°25.208 2°45.98 237.2 13.6 235 24.4
2012-02-13 12:02:13 51°25.076 2°45.684 235.8 13.5 234 24.2
2012-02-13 12:03:13 51°24.936 2°45.392 233.8 13.9 230 26.8
2012-02-13 12:04:13 51°24.792 2°45.105 233 13.9 234 26.7
2012-02-13 12:05:13 51°24.658 2°44.803 236.5 13.9 234 24.8
2012-02-13 12:06:13 51°24.522 2°44.503 235 14 235 27.4
2012-02-13 12:07:13 51°24.387 2°44.196 234.5 14.2 235 25.7
2012-02-13 12:08:13 51°24.246 2°43.896 232.6 14 232 24.4
2012-02-13 12:09:13 51°24.106 2°43.594 234.3 14.2 234 27
2012-02-13 12:10:13 51°23.973 2°43.283 237.5 14.1 236 23.4
2012-02-13 12:11:13 51°23.839 2°42.974 234.6 14 232 26.8
2012-02-13 12:12:13 51°23.695 2°42.678 233.9 14 233 25.4
2012-02-13 12:13:13 51°23.556 2°42.377 234.5 14.1 233 28.2
2012-02-13 12:14:13 51°23.421 2°42.075 238.5 13.9 236 28.2
2012-02-13 12:15:13 51°23.288 2°41.772 234.8 13.9 236 26.8
2012-02-13 12:16:13 51°23.151 2°41.474 233.3 13.8 230 26.8
2012-02-13 12:17:14 51°23.01 2°41.174 234.9 14 233 30.5
2012-02-13 12:18:13 51°22.875 2°40.881 235.4 14 234 29.3
2012-02-13 12:19:14 51°22.738 2°40.574 235.7 13.8 233 30
2012-02-13 12:20:13 51°22.565 2°40.348 209.7 13.8 211 29.8
2012-02-13 12:21:14 51°22.347 2°40.26 177.3 13.2 181 29.4
2012-02-13 12:22:13 51°22.128 2°40.26 175 13.5 180 28.5
2012-02-13 12:23:13 51°21.903 2°40.251 176.4 13.6 183 28.7
2012-02-13 12:24:13 51°21.678 2°40.227 178.9 13.4 185 27.8
2012-02-13 12:25:13 51°21.454 2°40.211 176.9 13.3 182 26.7
2012-02-13 12:26:13 51°21.229 2°40.192 178 13.4 184 27.3
2012-02-13 12:27:13 51°21.006 2°40.161 181.1 13.4 187 26.4
2012-02-13 12:28:14 51°20.779 2°40.136 178.3 13.3 182 26.4
2012-02-13 12:29:13 51°20.562 2°40.131 176.1 13.4 183 26.5
2012-02-13 12:30:14 51°20.334 2°40.103 181 13.7 186 27.8
2012-02-13 12:31:13 51°20.115 2°40.067 180.9 13.2 185 28.6
2012-02-13 12:32:13 51°19.895 2°40.041 176.2 12.9 182 28.3
2012-02-13 12:33:13 51°19.673 2°40.023 179.2 13.4 185 29.7
2012-02-13 12:34:13 51°19.454 2°39.99 180.8 13.1 186 26.6
2012-02-13 12:35:14 51°19.235 2°39.964 178 13.2 182 23.7
2012-02-13 12:36:13 51°19.021 2°39.945 181.1 13.2 188 23.7
2012-02-13 12:37:14 51°18.799 2°39.914 180.4 13.2 183 24.2
2012-02-13 12:38:13 51°18.585 2°39.906 176.6 12.9 181 25
2012-02-13 12:39:13 51°18.369 2°39.894 181.5 13 185 26.4
2012-02-13 12:40:13 51°18.153 2°39.865 180.3 12.8 184 21.5
2012-02-13 12:41:13 51°17.938 2°39.842 176.5 13.1 182 15.5
2012-02-13 12:42:13 51°17.718 2°39.814 179.3 13.2 187 17.4
2012-02-13 12:43:13 51°17.501 2°39.802 176.5 12.8 180 13.4
2012-02-13 12:44:13 51°17.284 2°39.79 176.8 13.1 184 12.6
2012-02-13 12:45:13 51°17.065 2°39.762 180.8 13.2 186 14.6
2012-02-13 12:46:14 51°16.839 2°39.711 189.2 13.7 194 17.7
2012-02-13 12:47:14 51°16.624 2°39.587 199.7 13.9 203 18.8
2012-02-13 12:48:14 51°16.412 2°39.446 199.8 13.5 201 18.8
2012-02-13 12:49:14 51°16.197 2°39.324 197.3 13.8 200 18.6
2012-02-13 12:50:14 51°15.991 2°39.158 207.7 14 211 18
2012-02-13 12:51:14 51°15.789 2°38.988 203.6 13.5 206 17.8
2012-02-13 12:52:14 51°15.579 2°38.833 205.8 14 206 17.1
2012-02-13 12:53:14 51°15.376 2°38.663 205.5 13.8 206 16.6
2012-02-13 12:54:14 51°15.169 2°38.502 206.2 13.8 206 16.5
2012-02-13 12:55:14 51°14.959 2°38.351 201.4 14.1 203 16.3
2012-02-13 12:56:13 51°14.751 2°38.207 200.8 14.1 202 16.1
2012-02-13 12:57:14 51°14.534 2°38.061 200.8 13.9 201 15.8
2012-02-13 12:58:13 51°14.32 2°37.959 190.4 13.6 193 17.4
2012-02-13 12:59:14 51°14.093 2°37.899 186.5 13.5 192 19.4
2012-02-13 13:00:14 51°13.874 2°37.823 188.2 13.5 189 16.6
2012-02-13 13:01:14 51°13.658 2°37.767 187 12.9 189 10
2012-02-13 13:02:14 51°13.444 2°37.703 190.5 12.8 194 10.1
2012-02-13 13:03:14 51°13.233 2°37.635 188.1 12.9 188 11.1
2012-02-13 13:04:13 51°13.023 2°37.583 190 13.1 193 11.9
2012-02-13 13:05:14 51°12.809 2°37.51 191.3 13.2 194 12.3
2012-02-13 13:06:14 51°12.599 2°37.415 195.2 13.2 196 11.8
2012-02-13 13:07:14 51°12.39 2°37.313 197.9 13.2 198 11.4
2012-02-13 13:08:14 51°12.184 2°37.205 198.5 12.9 200 11.5
2012-02-13 13:09:14 51°11.979 2°37.095 197.1 13.2 197 11.4
2012-02-13 13:10:14 51°11.778 2°36.972 200 12.9 200 12
2012-02-13 13:11:14 51°11.569 2°36.868 197.3 13.3 198 12.5
2012-02-13 13:12:14 51°11.367 2°36.751 200.1 12.9 201 12.6
2012-02-13 13:13:14 51°11.16 2°36.65 194.8 12.9 192 13.3
2012-02-13 13:14:14 51°10.955 2°36.543 197.7 13.1 200 12.9
2012-02-13 13:15:14 51°10.746 2°36.464 187.3 12.9 186 11.5
2012-02-13 13:16:14 51°10.536 2°36.507 162.6 12.8 162 9.9
2012-02-13 13:17:14 51°10.336 2°36.629 157.8 13 160 14.2
2012-02-13 13:18:14 51°10.14 2°36.76 155.1 12.7 156 18.8
2012-02-13 13:19:13 51°9.946 2°36.878 159.2 12.6 162 18.5
2012-02-13 13:20:14 51°9.743 2°36.978 160.8 12.7 165 17.3
2012-02-13 13:21:14 51°9.546 2°37.075 160.4 12.3 162 16.4
2012-02-13 13:22:14 51°9.359 2°37.192 155.7 9.9 159 13.8
2012-02-13 13:23:14 51°9.238 2°37.239 167 6.3 177 12.1
2012-02-13 13:24:14 51°9.167 2°37.185 229.1 4.3 231 11.5
2012-02-13 13:25:14 51°9.148 2°37.096 283.2 3.2 271 11.4
2012-02-13 13:26:13 51°9.151 2°37.055 319.6 0.5 204 11.7
2012-02-13 13:27:14 51°9.141 2°37.054 348.2 0.5 175 -999
2012-02-13 13:28:15 51°9.13 2°37.056 5 0.7 182 11.5
2012-02-13 13:29:14 51°9.12 2°37.061 16.8 0.4 135 11.3
2012-02-13 13:30:13 51°9.111 2°37.065 27.1 0.7 159 11
2012-02-13 13:31:14 51°9.105 2°37.073 32.1 0.4 99 11.5
2012-02-13 13:32:14 51°9.1 2°37.082 33 0.2 111 11.3
2012-02-13 13:33:14 51°9.096 2°37.093 29.6 0.4 112 10.9
2012-02-13 13:34:14 51°9.093 2°37.103 26.9 0.6 140 10.9
2012-02-13 13:35:14 51°9.09 2°37.112 24 0.3 132 10.9
2012-02-13 13:36:14 51°9.087 2°37.121 21.8 0.4 103 11.3
2012-02-13 13:37:14 51°9.083 2°37.134 19.7 1 96 11.2
2012-02-13 13:38:14 51°9.08 2°37.143 15.8 0.5 93 11.1
2012-02-13 13:39:14 51°9.077 2°37.155 10.6 0.5 116 11
2012-02-13 13:40:14 51°9.075 2°37.168 6.7 0.6 90 11.1
2012-02-13 13:41:14 51°9.074 2°37.181 4.2 0.8 87 11
2012-02-13 13:42:14 51°9.073 2°37.194 2.7 0.5 88 10.8
2012-02-13 13:43:14 51°9.071 2°37.209 3.2 0.7 90 11.1
2012-02-13 13:44:14 51°9.071 2°37.225 5 1 79 11.1
2012-02-13 13:45:14 51°9.071 2°37.241 7.3 0.7 80 11.1
2012-02-13 13:46:14 51°9.072 2°37.26 8.4 0.8 78 11.1
2012-02-13 13:47:14 51°9.074 2°37.278 5.2 0.7 86 11
2012-02-13 13:48:14 51°9.079 2°37.295 1.9 0.7 68 11.2
2012-02-13 13:49:14 51°9.081 2°37.313 1.5 0.6 87 11.2
2012-02-13 13:50:14 51°9.083 2°37.333 1.5 0.8 79 11.5
2012-02-13 13:51:13 51°9.083 2°37.354 5.2 0.8 96 11.4
2012-02-13 13:52:14 51°9.083 2°37.377 5.9 0.9 103 11.4
2012-02-13 13:53:13 51°9.108 2°37.374 319.3 3.4 317 11.8
2012-02-13 13:54:14 51°9.106 2°37.263 261.5 5.4 257 11.2
2012-02-13 13:55:13 51°9.098 2°37.125 287.7 4.4 289 11.8
2012-02-13 13:56:14 51°9.134 2°37.077 335 1.5 351 12.4
2012-02-13 13:57:14 51°9.144 2°37.092 12.2 0.8 73 12.5
2012-02-13 13:58:14 51°9.143 2°37.119 34.1 0.9 97 12.4
2012-02-13 13:59:14 51°9.142 2°37.149 42.1 1 93 12.6
2012-02-13 14:00:14 51°9.138 2°37.177 44.3 1.1 103 12.1
2012-02-13 14:01:14 51°9.135 2°37.21 38 1.2 95 12
2012-02-13 14:02:14 51°9.134 2°37.24 32.3 1.4 76 12.2
2012-02-13 14:03:14 51°9.171 2°37.255 329 2.7 338 12.8
2012-02-13 14:04:14 51°9.195 2°37.226 299.2 1.3 318 13
2012-02-13 14:05:14 51°9.205 2°37.219 309.7 0.6 12 13.2
2012-02-13 14:06:14 51°9.215 2°37.23 319.4 0.8 49 13.2
2012-02-13 14:07:14 51°9.223 2°37.253 325.4 1.1 75 13.2
2012-02-13 14:08:14 51°9.228 2°37.283 338.2 1.4 83 13.4
2012-02-13 14:09:14 51°9.23 2°37.32 358.2 1.5 90 13.2
2012-02-13 14:10:14 51°9.236 2°37.359 9.3 2.2 48 13.2
2012-02-13 14:11:14 51°9.276 2°37.341 297.4 2.6 302 13.8
2012-02-13 14:12:14 51°9.275 2°37.298 265.1 1 253 14.1
2012-02-13 14:13:14 51°9.27 2°37.287 264.3 0.3 198 13.6
2012-02-13 14:14:14 51°9.265 2°37.294 263.5 0.6 111 14.2
2012-02-13 14:15:14 51°9.26 2°37.31 262.6 0.7 115 13.6
2012-02-13 14:16:14 51°9.255 2°37.328 259.4 0.8 121 14
2012-02-13 14:17:14 51°9.25 2°37.347 254.2 0.8 116 13.7
2012-02-13 14:18:14 51°9.244 2°37.366 253.7 0.8 115 13.6
2012-02-13 14:19:14 51°9.237 2°37.385 253.3 0.8 123 13.8
2012-02-13 14:20:14 51°9.231 2°37.402 253.4 0.7 126 13.5
2012-02-13 14:21:14 51°9.225 2°37.413 257 0.5 140 13.2
2012-02-13 14:22:14 51°9.219 2°37.423 258.5 0.4 139 13.2
2012-02-13 14:23:14 51°9.212 2°37.433 259.8 0.7 127 13.4
2012-02-13 14:24:14 51°9.208 2°37.442 261.3 0.5 137 13.5
2012-02-13 14:25:14 51°9.204 2°37.451 263.6 0.3 138 13.1
2012-02-13 14:26:14 51°9.203 2°37.458 269.1 0.2 83 13.4
2012-02-13 14:27:14 51°9.215 2°37.448 309 2.2 342 13.6
2012-02-13 14:28:14 51°9.28 2°37.5 43.6 6.7 55 13.8
2012-02-13 14:29:14 51°9.365 2°37.706 54.5 11.1 58 14
2012-02-13 14:30:14 51°9.47 2°38.001 61.9 13.8 61 13.7
2012-02-13 14:31:14 51°9.559 2°38.343 70.9 14 70 13.9
2012-02-13 14:32:14 51°9.64 2°38.691 69.2 14 68 13.8
2012-02-13 14:33:14 51°9.727 2°39.036 67.4 14 67 13.8
2012-02-13 14:34:14 51°9.813 2°39.382 69.5 14.1 69 13.9
2012-02-13 14:35:14 51°9.911 2°39.724 65.1 14.3 66 14
2012-02-13 14:36:14 51°9.998 2°40.075 70.3 14.4 69 13.9
2012-02-13 14:37:14 51°10.088 2°40.426 70.4 14.3 69 13.6
2012-02-13 14:38:14 51°10.182 2°40.775 67.6 14.3 67 13.8
2012-02-13 14:39:14 51°10.273 2°41.125 67.6 14.2 68 13.8
2012-02-13 14:40:14 51°10.364 2°41.476 68.5 14.5 69 13.8
2012-02-13 14:41:14 51°10.458 2°41.825 68.1 14.2 70 13.6
2012-02-13 14:42:14 51°10.557 2°42.168 66.8 14.3 65 13.9
2012-02-13 14:43:14 51°10.642 2°42.522 71.6 14.2 71 13.9
2012-02-13 14:44:14 51°10.735 2°42.87 65.5 14.3 65 13.9
2012-02-13 14:45:14 51°10.836 2°43.214 68.7 14.3 68 14.3
2012-02-13 14:46:13 51°10.919 2°43.561 68.7 14.3 68 14.4
2012-02-13 14:47:14 51°11.017 2°43.911 68 14.2 68 14.4
2012-02-13 14:48:14 51°11.114 2°44.254 67.1 14.2 67 14.4
2012-02-13 14:49:14 51°11.205 2°44.603 69.2 14.2 68 14.8
2012-02-13 14:50:14 51°11.296 2°44.954 68.2 14.3 66 14.9
2012-02-13 14:51:14 51°11.396 2°45.296 64.3 14.3 63 14.8
2012-02-13 14:52:14 51°11.502 2°45.634 65.4 14.3 63 15.3
2012-02-13 14:53:14 51°11.596 2°45.982 68.5 14.3 67 15.3
2012-02-13 14:54:14 51°11.684 2°46.335 69.8 14.4 67 15.4
2012-02-13 14:55:14 51°11.784 2°46.678 67.6 14.1 65 15.6
2012-02-13 14:56:14 51°11.88 2°47.018 68.3 14.1 65 15.1
2012-02-13 14:57:14 51°11.977 2°47.361 68.9 14 68 15.2
2012-02-13 14:58:14 51°12.063 2°47.71 71.5 14.3 67 14.9
2012-02-13 14:59:14 51°12.169 2°48.047 62.9 14.2 63 15.2
2012-02-13 15:00:14 51°12.273 2°48.383 65.8 14.2 64 14.8
2012-02-13 15:01:14 51°12.376 2°48.725 68.8 14.2 67 14.8
2012-02-13 15:02:14 51°12.476 2°49.068 69.8 14.3 66 14.6
2012-02-13 15:03:14 51°12.583 2°49.408 64.3 14.3 63 14.1
2012-02-13 15:04:14 51°12.69 2°49.748 65 14.3 61 14.1
2012-02-13 15:05:00 51°8.105 2°58.95 125.9 -999 -999 -999
2012-02-13 15:05:23 51°12.824 2°50.128 64.5 14.3 62 13.6
2012-02-13 15:06:24 51°12.934 2°50.47 67.2 14.3 61 13.9
2012-02-13 15:07:23 51°13.043 2°50.802 64.1 14.4 64 14.2
2012-02-13 15:08:23 51°13.155 2°51.143 65.6 14.5 63 13.8
2012-02-13 15:09:23 51°13.271 2°51.478 60.3 14.4 57 13.9
2012-02-13 15:10:23 51°13.422 2°51.775 47.7 14.5 47 13.5
2012-02-13 15:11:23 51°13.571 2°52.078 56.3 14.6 54 13.8
2012-02-13 15:12:23 51°13.715 2°52.388 55.5 14.5 53 13.5
2012-02-13 15:13:23 51°13.853 2°52.703 57.7 14.5 55 13.5
2012-02-13 15:14:23 51°13.996 2°53.014 55.2 14.6 54 13.3
2012-02-13 15:15:23 51°14.137 2°53.327 56.7 14.5 54 13.2
2012-02-13 15:16:23 51°14.27 2°53.647 58.2 14.4 55 13.1
2012-02-13 15:17:23 51°14.416 2°53.953 53.5 14.5 50 12.9
2012-02-13 15:18:23 51°14.547 2°54.277 64.8 14.5 65 13.4
2012-02-13 15:19:23 51°14.649 2°54.628 74.6 14.3 76 13.6
2012-02-13 15:20:23 51°14.584 2°54.96 136.2 13.1 127 15.3
2012-02-13 15:21:25 51°14.415 2°55.168 149.2 11.7 149 -999
2012-02-13 15:22:27 51°14.253 2°55.309 151.8 9.7 153 -999
2012-02-13 15:23:27 51°14.122 2°55.413 155.9 8.2 154 -999
2012-02-13 15:24:27 51°14.013 2°55.496 157.3 6.1 155 -999
2012-02-13 15:25:27 51°13.931 2°55.554 157.4 5.4 154 -999
2012-02-13 15:26:27 51°13.845 2°55.616 156.4 5.9 154 -999
2012-02-13 15:27:27 51°13.764 2°55.698 140 5.8 138 -999
2012-02-13 15:28:27 51°13.701 2°55.814 128.9 5.3 127 -999
2012-02-13 15:29:27 51°13.66 2°55.917 119.1 3.9 117 -999
2012-02-13 15:30:27 51°13.642 2°55.997 107.5 2.5 107 11.8